Time;durP1;ratioP1;P1;durP2;ratioP2;P2;SDS_P1;SDS_P2;PMS_P1;PMS_P2;Temp;Humidity;BMP_temperature;BMP_pressure;BME280_temperature;BME280_humidity;BME280_pressure;Samples;Min_cycle;Max_cycle;Signal;HPM_P1;HPM_P2
2022/11/20 00:01:20;;;;;;;4.00;3.78;;;;;;;1.76;100.00;100773.09;6035754;23;20030;-76
2022/11/20 00:03:47;;;;;;;5.05;3.70;;;;;;;2.73;100.00;100936.47;6050224;23;20083;-77
2022/11/20 00:06:16;;;;;;;5.82;4.47;;;;;;;2.55;100.00;100894.41;6065251;23;20425;-76
2022/11/20 00:08:43;;;;;;;4.50;4.10;;;;;;;2.34;100.00;100868.84;6073585;23;20117;-78
2022/11/20 00:11:18;;;;;;;5.35;4.95;;;;;;;2.23;100.00;100847.44;6023873;23;20089;-76
2022/11/20 00:13:47;;;;;;;4.82;4.53;;;;;;;2.70;100.00;100926.13;6044236;23;20022;-76
2022/11/20 00:16:16;;;;;;;4.75;4.32;;;;;;;2.71;100.00;100927.88;6052811;23;20140;-74
2022/11/20 00:18:43;;;;;;;5.25;4.88;;;;;;;1.02;100.00;100653.44;6063386;23;20198;-76
2022/11/20 00:21:13;;;;;;;4.38;4.07;;;;;;;2.72;100.00;100930.41;6041350;23;20038;-76
2022/11/20 00:23:40;;;;;;;9.88;5.78;;;;;;;2.57;100.00;100902.16;6060498;23;20383;-78
2022/11/20 00:26:09;;;;;;;4.28;3.97;;;;;;;2.76;100.00;100945.03;6044031;23;20453;-76
2022/11/20 00:28:35;;;;;;;4.95;4.53;;;;;;;1.29;100.00;100697.00;6066218;23;20072;-75
2022/11/20 00:31:03;;;;;;;5.50;5.10;;;;;;;2.73;100.00;100928.69;6040492;23;20524;-77
2022/11/20 00:33:30;;;;;;;7.75;6.13;;;;;;;2.75;100.00;100926.94;6066862;23;20018;-77
2022/11/20 00:36:06;;;;;;;6.82;5.82;;;;;;;2.37;100.00;100861.88;6028682;23;20121;-78
2022/11/20 00:38:33;;;;;;;10.50;5.18;;;;;;;2.73;100.00;100929.53;6061019;23;20005;-77
2022/11/20 00:41:05;;;;;;;5.78;5.07;;;;;;;2.75;100.00;100926.94;6022271;23;21001;-77
2022/11/20 00:43:31;;;;;;;4.13;3.85;;;;;;;2.56;100.00;100890.94;6042104;23;20418;-76
2022/11/20 00:45:59;;;;;;;5.78;4.68;;;;;;;2.77;100.00;100923.41;6084042;23;20141;-75
2022/11/20 00:48:26;;;;;;;6.45;5.22;;;;;;;2.75;100.00;100913.97;6062094;23;20580;-76
2022/11/20 00:50:53;;;;;;;5.00;4.70;;;;;;;2.61;100.00;100901.25;6051567;23;20427;-76
2022/11/20 00:53:20;;;;;;;4.00;3.80;;;;;;;0.36;100.00;100508.84;6074077;23;20368;-76
2022/11/20 00:55:59;;;;;;;4.88;4.57;;;;;;;2.59;100.00;100885.72;6033656;23;20151;-76
2022/11/20 00:58:30;;;;;;;5.63;5.22;;;;;;;2.79;100.00;100919.06;6057588;23;20010;-76
2022/11/20 01:01:17;;;;;;;5.72;5.20;;;;;;;2.68;100.00;100900.25;6060931;23;20030;-75
2022/11/20 01:03:46;;;;;;;4.50;4.22;;;;;;;1.37;100.00;100684.81;6084567;23;20346;-77
2022/11/20 01:06:28;;;;;;;9.63;4.63;;;;;;;2.82;100.00;100919.91;6059248;23;20026;-76
2022/11/20 01:08:56;;;;;;;5.75;5.13;;;;;;;2.07;100.00;100811.44;6040366;23;20022;-75
2022/11/20 01:11:26;;;;;;;5.57;4.95;;;;;;;2.65;100.00;100896.88;6060179;23;20094;-76
2022/11/20 01:13:53;;;;;;;4.47;4.15;;;;;;;2.86;100.00;100945.72;6059066;23;20312;-75
2022/11/20 01:16:22;;;;;;;17.20;8.18;;;;;;;2.85;100.00;100918.13;6033275;23;20161;-75
2022/11/20 01:18:51;;;;;;;15.60;5.65;;;;;;;2.84;100.00;100910.34;6058319;23;20288;-75
2022/11/20 01:21:30;;;;;;;6.70;5.20;;;;;;;2.85;100.00;100905.16;6044095;23;20030;-77
2022/11/20 01:23:58;;;;;;;4.88;4.57;;;;;;;2.17;100.00;100801.78;6043816;23;20140;-74
2022/11/20 01:26:27;;;;;;;6.22;5.25;;;;;;;2.68;100.00;100886.44;6067401;23;20018;-76
2022/11/20 01:28:54;;;;;;;6.30;5.68;;;;;;;2.86;100.00;100914.63;6052782;23;20035;-75
2022/11/20 01:31:24;;;;;;;4.88;4.45;;;;;;;2.88;100.00;100912.03;6041476;23;20030;-77
2022/11/20 01:33:53;;;;;;;30.40;12.80;;;;;;;1.46;100.00;100689.00;6072144;23;20042;-75
2022/11/20 01:36:21;;;;;;;13.07;9.48;;;;;;;2.81;100.00;100911.28;6059695;23;20036;-74
2022/11/20 01:38:51;;;;;;;24.90;17.45;;;;;;;2.27;100.00;100833.56;6048745;23;20027;-74
2022/11/20 01:44:04;;;;;;;7.47;4.47;;;;;;;2.84;100.00;100911.22;6043356;23;20225;-75
2022/11/20 01:46:34;;;;;;;4.90;4.50;;;;;;;2.80;100.00;100953.63;6070389;23;20037;-75
2022/11/20 01:49:06;;;;;;;7.65;6.97;;;;;;;2.17;100.00;100812.16;6075461;23;20018;-75
2022/11/20 01:51:39;;;;;;;5.18;4.70;;;;;;;2.34;100.00;100833.44;6057214;23;20038;-74
2022/11/20 01:54:11;;;;;;;5.60;5.10;;;;;;;2.63;100.00;100885.66;6041721;23;20211;-76
2022/11/20 01:56:41;;;;;;;5.82;5.22;;;;;;;1.32;100.00;100662.50;6075391;23;20467;-76
2022/11/20 01:59:10;;;;;;;5.47;4.97;;;;;;;2.25;100.00;100815.47;6059477;23;20022;-76
2022/11/20 02:01:38;;;;;;;5.05;4.70;;;;;;;1.98;100.00;100776.19;6028461;23;20018;-76
2022/11/20 02:04:08;;;;;;;5.32;4.82;;;;;;;2.60;100.00;100884.81;6061871;23;20098;-77
2022/11/20 02:06:48;;;;;;;6.47;5.97;;;;;;;2.26;100.00;100824.94;6057419;23;20433;-75
2022/11/20 02:09:15;;;;;;;4.57;4.28;;;;;;;2.04;100.00;100787.31;6049661;23;20390;-74
2022/11/20 02:11:41;;;;;;;5.47;5.07;;;;;;;1.73;100.00;100734.31;6038970;23;20072;-74
2022/11/20 02:14:09;;;;;;;4.07;3.88;;;;;;;2.58;100.00;100868.44;6065443;23;20025;-75
2022/11/20 02:16:39;;;;;;;4.05;3.75;;;;;;;2.55;100.00;100865.91;6039481;23;20007;-75
2022/11/20 02:19:12;;;;;;;4.70;4.28;;;;;;;1.82;100.00;100748.81;6034703;23;20030;-76
2022/11/20 02:21:48;;;;;;;4.15;3.95;;;;;;;2.52;100.00;100858.19;6081737;23;20418;-76
2022/11/20 02:24:18;;;;;;;4.55;4.25;;;;;;;1.54;100.00;100715.63;6048872;23;20358;-74
2022/11/20 02:26:55;;;;;;;5.03;4.53;;;;;;;2.54;100.00;100855.56;6045970;23;20018;-75
2022/11/20 02:29:28;;;;;;;4.28;3.97;;;;;;;1.95;100.00;100785.75;6061839;23;20097;-75
2022/11/20 02:31:56;;;;;;;5.50;4.97;;;;;;;1.40;100.00;100676.16;6045328;23;20022;-75
2022/11/20 02:34:22;;;;;;;5.55;5.15;;;;;;;2.55;100.00;100862.47;6046400;23;20108;-75
2022/11/20 02:36:52;;;;;;;4.30;4.05;;;;;;;2.23;100.00;100806.03;6043198;23;20530;-75
2022/11/20 02:39:20;;;;;;;6.57;5.10;;;;;;;2.25;100.00;100812.88;6046350;23;20035;-75
2022/11/20 02:41:47;;;;;;;7.15;5.78;;;;;;;2.57;100.00;100860.72;6052022;23;20024;-75
2022/11/20 02:44:14;;;;;;;6.20;5.60;;;;;;;1.70;100.00;100717.97;6059199;23;20171;-75
2022/11/20 02:46:40;;;;;;;5.97;5.50;;;;;;;2.56;100.00;100867.59;6055273;23;20006;-74
2022/11/20 02:49:07;;;;;;;5.28;4.78;;;;;;;2.15;100.00;100800.97;6064643;23;20026;-76
2022/11/20 02:51:33;;;;;;;7.18;4.85;;;;;;;1.76;100.00;100733.41;6055856;23;20081;-76
2022/11/20 02:53:59;;;;;;;4.85;4.45;;;;;;;2.60;100.00;100873.59;6069812;23;20030;-76
2022/11/20 02:56:26;;;;;;;5.03;4.20;;;;;;;2.32;100.00;100837.78;6025730;23;20349;-76
2022/11/20 02:58:53;;;;;;;4.82;4.53;;;;;;;2.23;100.00;100814.63;6064478;23;20502;-77
2022/11/20 03:01:19;;;;;;;6.47;4.78;;;;;;;2.09;100.00;100812.25;6057276;23;20052;-76
2022/11/20 03:03:48;;;;;;;5.63;5.22;;;;;;;2.49;100.00;100867.75;6085173;23;20010;-75
2022/11/20 03:06:16;;;;;;;6.22;5.68;;;;;;;2.43;100.00;100873.03;6056895;23;20038;-77
2022/11/20 03:08:43;;;;;;;5.68;5.05;;;;;;;1.50;100.00;100719.09;6037706;23;20401;-77
2022/11/20 03:11:09;;;;;;;3.88;3.25;;;;;;;1.16;100.00;100674.78;6065834;23;20021;-76
2022/11/20 03:13:36;;;;;;;6.97;4.28;;;;;;;2.32;100.00;100870.59;6043926;23;20488;-75
2022/11/20 03:16:17;;;;;;;5.45;5.03;;;;;;;2.02;100.00;100830.50;6049541;23;20039;-75
2022/11/20 03:18:43;;;;;;;4.03;3.72;;;;;;;0.91;100.00;100645.84;6066110;23;20151;-75
2022/11/20 03:21:12;;;;;;;4.45;4.03;;;;;;;1.96;100.00;100832.28;6051509;23;20043;-75
2022/11/20 03:23:39;;;;;;;8.30;4.63;;;;;;;2.11;100.00;100866.59;6063760;23;20037;-75
2022/11/20 03:26:18;;;;;;;5.13;4.72;;;;;;;2.06;100.00;100863.22;6052682;23;20223;-76
2022/11/20 03:28:53;;;;;;;5.15;4.65;;;;;;;1.69;100.00;100796.47;6057491;23;20230;-74
2022/11/20 03:31:23;;;;;;;5.30;4.75;;;;;;;0.85;100.00;100657.13;6052135;23;20022;-74
2022/11/20 03:33:50;;;;;;;3.63;3.42;;;;;;;1.57;100.00;100766.44;6064301;23;20441;-75
2022/11/20 03:36:18;;;;;;;5.53;5.10;;;;;;;2.10;100.00;100867.47;6061310;23;20092;-75
2022/11/20 03:38:44;;;;;;;5.05;4.60;;;;;;;1.58;100.00;100781.06;6062174;23;20037;-75
2022/11/20 03:41:14;;;;;;;4.22;3.88;;;;;;;1.96;100.00;100834.88;6060676;23;20082;-76
2022/11/20 03:43:41;;;;;;;4.57;4.28;;;;;;;1.88;100.00;100815.16;6065338;23;20094;-76
2022/11/20 03:46:07;;;;;;;4.38;4.07;;;;;;;2.11;100.00;100851.94;6054073;23;20366;-76
2022/11/20 03:48:34;;;;;;;4.53;4.00;;;;;;;2.03;100.00;100838.25;6074073;23;20026;-76
2022/11/20 03:51:08;;;;;;;5.25;4.93;;;;;;;1.98;100.00;100846.09;6076139;23;20729;-75
2022/11/20 03:53:34;;;;;;;5.15;3.88;;;;;;;1.19;100.00;100714.38;6078868;23;20025;-77
2022/11/20 03:56:00;;;;;;;4.30;4.10;;;;;;;0.94;100.00;100681.97;6034041;23;20035;-76
2022/11/20 03:58:27;;;;;;;4.95;4.20;;;;;;;1.28;100.00;100762.50;6056961;23;20113;-77
2022/11/20 04:00:53;;;;;;;4.43;4.18;;;;;;;0.84;100.00;100678.63;6076354;23;20026;-76
2022/11/20 04:03:20;;;;;;;6.65;6.22;;;;;;;1.55;100.00;100805.25;6054169;23;20026;-75
2022/11/20 04:05:46;;;;;;;6.45;4.47;;;;;;;1.01;100.00;100732.72;6051579;23;20442;-75
2022/11/20 04:08:12;;;;;;;4.63;4.38;;;;;;;1.27;100.00;100775.47;6054175;23;20426;-76
2022/11/20 04:10:39;;;;;;;7.72;4.63;;;;;;;1.57;100.00;100803.50;6046203;23;20019;-76
2022/11/20 04:13:05;;;;;;;4.20;3.80;;;;;;;1.79;100.00;100832.53;6044847;23;20033;-76
2022/11/20 04:15:32;;;;;;;5.80;4.72;;;;;;;1.56;100.00;100794.06;6066273;23;20164;-76
2022/11/20 04:18:03;;;;;;;4.70;4.30;;;;;;;0.94;100.00;100688.00;6053209;23;20058;-75
2022/11/20 04:20:30;;;;;;;4.63;4.20;;;;;;;1.66;100.00;100799.94;6061875;23;20026;-76
2022/11/20 04:22:56;;;;;;;4.93;4.63;;;;;;;1.84;100.00;100841.97;6074233;23;20022;-76
2022/11/20 04:25:22;;;;;;;4.45;4.15;;;;;;;1.30;100.00;100736.63;6058718;23;20067;-77
2022/11/20 04:27:49;;;;;;;3.88;3.67;;;;;;;1.93;100.00;100839.25;6053028;23;20166;-77
2022/11/20 04:30:15;;;;;;;5.50;5.15;;;;;;;1.75;100.00;100807.56;6053277;23;20037;-77
2022/11/20 04:32:42;;;;;;;4.68;4.40;;;;;;;1.57;100.00;100780.22;6066690;23;20040;-76
2022/11/20 04:35:08;;;;;;;5.88;4.03;;;;;;;1.74;100.00;100816.19;6055459;23;20080;-76
2022/11/20 04:37:34;;;;;;;4.18;3.92;;;;;;;1.93;100.00;100837.50;6076892;23;20014;-75
2022/11/20 04:40:01;;;;;;;4.93;4.63;;;;;;;1.36;100.00;100757.25;6061246;23;20266;-75
2022/11/20 04:42:30;;;;;;;4.70;4.30;;;;;;;1.23;100.00;100714.34;6055733;23;20022;-76
2022/11/20 04:44:57;;;;;;;3.70;3.55;;;;;;;1.98;100.00;100838.31;6058574;23;20037;-76
2022/11/20 04:47:23;;;;;;;4.97;4.60;;;;;;;0.57;100.00;100597.22;6066210;23;20017;-76
2022/11/20 04:49:50;;;;;;;5.55;4.60;;;;;;;2.08;100.00;100851.09;6060153;23;20030;-76
2022/11/20 04:52:16;;;;;;;4.45;4.10;;;;;;;2.10;100.00;100845.03;6063111;23;20521;-76
2022/11/20 04:54:43;;;;;;;3.75;3.55;;;;;;;1.59;100.00;100756.94;6042634;23;20022;-77
2022/11/20 04:57:09;;;;;;;5.45;4.32;;;;;;;1.99;100.00;100810.69;6061979;23;20381;-75
2022/11/20 04:59:40;;;;;;;6.10;4.85;;;;;;;2.15;100.00;100845.81;6055540;23;20034;-75
2022/11/20 05:02:06;;;;;;;4.30;4.00;;;;;;;1.38;100.00;100712.41;6033398;23;20139;-77
2022/11/20 05:04:33;;;;;;;4.32;4.00;;;;;;;1.09;100.00;100658.50;6072859;23;20077;-77
2022/11/20 05:06:59;;;;;;;5.28;4.38;;;;;;;2.23;100.00;100861.25;6048165;23;20026;-76
2022/11/20 05:09:25;;;;;;;4.07;3.80;;;;;;;2.18;100.00;100835.41;6036136;23;20091;-76
2022/11/20 05:11:52;;;;;;;3.95;3.20;;;;;;;2.16;100.00;100834.56;6087987;23;20042;-75
2022/11/20 05:14:18;;;;;;;4.55;4.25;;;;;;;1.94;100.00;100802.97;6048333;23;20022;-77
2022/11/20 05:16:45;;;;;;;5.93;5.43;;;;;;;1.19;100.00;100669.59;6055306;23;20436;-75
2022/11/20 05:19:11;;;;;;;6.15;5.65;;;;;;;2.03;100.00;100827.88;6078158;23;20450;-75
2022/11/20 05:21:38;;;;;;;3.92;3.65;;;;;;;1.91;100.00;100804.78;6083481;23;20017;-76
2022/11/20 05:24:05;;;;;;;4.10;3.88;;;;;;;1.95;100.00;100815.06;6058897;23;20038;-75
2022/11/20 05:26:32;;;;;;;9.38;4.35;;;;;;;2.08;100.00;100843.34;6049184;23;20067;-75
2022/11/20 05:28:58;;;;;;;4.60;4.20;;;;;;;1.45;100.00;100751.13;6063175;23;20022;-75
2022/11/20 05:31:25;;;;;;;3.60;3.40;;;;;;;1.73;100.00;100790.38;6068056;23;20029;-75
2022/11/20 05:33:55;;;;;;;3.67;3.38;;;;;;;1.50;100.00;100762.22;6052841;23;20223;-75
2022/11/20 05:36:21;;;;;;;5.30;4.88;;;;;;;1.17;100.00;100704.94;6054671;23;20089;-74
2022/11/20 05:38:48;;;;;;;3.88;3.67;;;;;;;1.73;100.00;100787.78;6061400;23;20034;-75
2022/11/20 05:41:18;;;;;;;3.92;3.63;;;;;;;2.02;100.00;100833.09;6067981;23;20025;-74
2022/11/20 05:43:46;;;;;;;4.97;4.60;;;;;;;2.01;100.00;100839.16;6047448;23;20076;-77
2022/11/20 05:46:14;;;;;;;5.20;4.90;;;;;;;1.79;100.00;100796.31;6077819;23;20467;-74
2022/11/20 05:48:42;;;;;;;18.50;17.48;;;;;;;1.48;100.00;100751.91;5989728;23;20370;-75
2022/11/20 05:51:10;;;;;;;3.88;3.60;;;;;;;1.88;100.00;100822.94;6052444;23;20030;-75
2022/11/20 05:53:37;;;;;;;3.92;3.63;;;;;;;1.63;100.00;100796.56;6057031;23;20047;-75
2022/11/20 05:56:09;;;;;;;4.00;3.70;;;;;;;1.73;100.00;100824.84;6086020;23;20036;-74
2022/11/20 05:58:37;;;;;;;10.27;4.03;;;;;;;1.34;100.00;100761.56;6036506;23;20027;-74
2022/11/20 06:01:04;;;;;;;4.43;4.07;;;;;;;1.39;100.00;100778.75;6075946;23;20038;-75
2022/11/20 06:03:31;;;;;;;4.50;4.28;;;;;;;1.01;100.00;100717.22;6059256;23;20030;-75
2022/11/20 06:05:59;;;;;;;18.38;4.05;;;;;;;1.54;100.00;100815.63;6058189;23;20049;-74
2022/11/20 06:08:25;;;;;;;4.47;4.18;;;;;;;1.15;100.00;100764.41;6044747;23;20036;-75
2022/11/20 06:10:51;;;;;;;5.00;4.65;;;;;;;1.40;100.00;100820.97;6048118;23;20441;-75
2022/11/20 06:13:18;;;;;;;4.63;4.32;;;;;;;0.90;100.00;100747.47;6065461;23;20080;-75
2022/11/20 06:15:49;;;;;;;4.72;4.32;;;;;;;0.84;100.00;100734.63;6083204;23;20034;-74
2022/11/20 06:18:16;;;;;;;9.18;4.47;;;;;;;0.85;100.00;100757.03;6058809;23;20682;-75
2022/11/20 06:20:42;;;;;;;3.95;3.75;;;;;;;0.79;100.00;100761.38;6074602;23;20026;-75
2022/11/20 06:23:08;;;;;;;4.32;4.07;;;;;;;0.36;100.00;100679.22;6044025;23;20026;-75
2022/11/20 06:25:39;;;;;;;4.18;3.97;;;;;;;1.01;100.00;100812.81;6046866;23;20526;-75
2022/11/20 06:28:07;;;;;;;3.78;3.58;;;;;;;-0.62;100.00;100570.06;6038025;23;20109;-75
2022/11/20 06:30:33;;;;;;;3.38;3.25;;;;;;;0.52;100.00;100771.97;6053149;23;21156;-75
2022/11/20 06:32:59;;;;;;;17.27;5.43;;;;;;;0.66;100.00;100810.59;6040616;23;20022;-75
2022/11/20 06:35:26;;;;;;;4.35;4.05;;;;;;;0.15;100.00;100751.69;6050610;23;20092;-74
2022/11/20 06:37:52;;;;;;;12.55;4.13;;;;;;;0.16;100.00;100774.91;6053775;23;20200;-74
2022/11/20 06:40:19;;;;;;;3.90;3.70;;;;;;;-0.21;100.00;100717.56;6062868;23;20757;-76
2022/11/20 06:42:45;;;;;;;5.20;4.80;;;;;;;0.35;100.00;100819.47;6063647;23;20071;-76
2022/11/20 06:45:11;;;;;;;3.05;2.95;;;;;;;-0.59;100.00;100674.00;6047454;23;20030;-76
2022/11/20 06:47:38;;;;;;;4.18;3.97;;;;;;;-0.98;100.00;100603.81;6044454;23;20023;-75
2022/11/20 06:50:05;;;;;;;3.05;2.92;;;;;;;-0.21;100.00;100733.03;6047608;23;20029;-75
2022/11/20 06:52:33;;;;;;;4.78;4.47;;;;;;;0.40;100.00;100819.41;6033984;23;20019;-75
2022/11/20 06:55:02;;;;;;;4.50;4.25;;;;;;;0.13;100.00;100764.59;6056975;23;20362;-75
2022/11/20 06:57:29;;;;;;;3.75;3.55;;;;;;;-1.06;100.00;100581.56;6075118;23;20366;-75
2022/11/20 06:59:55;;;;;;;4.63;3.35;;;;;;;0.34;100.00;100791.97;6064311;23;20033;-75
2022/11/20 07:02:21;;;;;;;3.33;3.17;;;;;;;0.53;100.00;100822.78;6053387;23;20167;-75
2022/11/20 07:04:48;;;;;;;4.55;4.30;;;;;;;0.56;100.00;100833.06;6081364;23;20058;-75
2022/11/20 07:07:14;;;;;;;4.32;3.95;;;;;;;-0.39;100.00;100679.03;6069366;23;20025;-75
2022/11/20 07:09:41;;;;;;;3.20;3.00;;;;;;;0.30;100.00;100776.47;6053331;23;20451;-75
2022/11/20 07:12:07;;;;;;;4.60;4.22;;;;;;;0.33;100.00;100800.56;6069257;23;20017;-75
2022/11/20 07:14:34;;;;;;;3.83;3.63;;;;;;;0.67;100.00;100838.13;6042180;23;20010;-74
2022/11/20 07:17:00;;;;;;;3.55;3.35;;;;;;;0.18;100.00;100772.28;6049451;23;20073;-73
2022/11/20 07:19:27;;;;;;;4.43;4.15;;;;;;;0.81;100.00;100843.19;6056628;23;20014;-72
2022/11/20 07:21:53;;;;;;;3.47;3.35;;;;;;;0.36;100.00;100751.50;6075935;23;20030;-72
2022/11/20 07:24:19;;;;;;;3.47;3.28;;;;;;;0.38;100.00;100743.72;6050256;23;20070;-73
2022/11/20 07:26:48;;;;;;;4.43;4.15;;;;;;;0.55;100.00;100751.31;6051935;23;20033;-73
2022/11/20 07:29:16;;;;;;;5.40;4.28;;;;;;;1.21;100.00;100848.78;6033265;23;20340;-72
2022/11/20 07:31:42;;;;;;;4.15;3.88;;;;;;;0.45;100.00;100740.22;6051895;23;20489;-73
2022/11/20 07:34:09;;;;;;;4.13;3.83;;;;;;;0.88;100.00;100811.22;6078236;23;20581;-73
2022/11/20 07:36:35;;;;;;;3.20;3.10;;;;;;;0.52;100.00;100739.28;6061547;23;20487;-73
2022/11/20 07:39:02;;;;;;;4.57;4.32;;;;;;;1.25;100.00;100842.69;6068253;23;20030;-72
2022/11/20 07:41:28;;;;;;;3.83;3.63;;;;;;;0.87;100.00;100770.78;6062205;23;20030;-73
2022/11/20 07:43:55;;;;;;;4.75;4.35;;;;;;;1.13;100.00;100807.50;6048790;23;20339;-73
2022/11/20 07:46:21;;;;;;;5.15;4.82;;;;;;;0.77;100.00;100731.28;6045445;23;20030;-71
2022/11/20 07:48:47;;;;;;;3.80;3.60;;;;;;;1.04;100.00;100770.56;6041282;23;20084;-71
2022/11/20 07:51:14;;;;;;;4.18;3.85;;;;;;;1.04;100.00;100757.66;6040706;23;20030;-72
2022/11/20 07:53:40;;;;;;;3.70;3.38;;;;;;;1.54;100.00;100829.44;6071440;23;20101;-71
2022/11/20 07:56:07;;;;;;;4.13;3.92;;;;;;;0.91;100.00;100733.69;6050996;23;20022;-72
2022/11/20 07:58:34;;;;;;;5.85;4.55;;;;;;;1.65;100.00;100838.78;6049699;23;20064;-72
2022/11/20 08:01:05;;;;;;;6.72;5.15;;;;;;;1.36;100.00;100765.88;6092225;23;20030;-72
2022/11/20 08:03:32;;;;;;;4.70;4.43;;;;;;;1.84;100.00;100824.69;6067231;23;20095;-72
2022/11/20 08:06:02;;;;;;;3.85;3.65;;;;;;;1.85;100.00;100808.31;6058568;23;20042;-72
2022/11/20 08:08:29;;;;;;;8.90;4.35;;;;;;;1.58;100.00;100756.09;6043774;23;20023;-72
2022/11/20 08:14:13;;;;;;;4.72;4.07;;;;;;;2.12;100.00;100821.69;6025537;23;20038;-72
2022/11/20 08:16:45;;;;;;;5.72;4.35;;;;;;;1.51;100.00;100707.91;6060754;23;20037;-71
2022/11/20 08:19:13;;;;;;;3.80;3.55;;;;;;;2.30;100.00;100823.16;6069857;23;20100;-71
2022/11/20 08:21:40;;;;;;;4.85;4.53;;;;;;;1.90;100.00;100744.38;6055621;23;20059;-71
2022/11/20 08:24:09;;;;;;;4.68;4.28;;;;;;;1.92;100.00;100745.22;6033752;23;20164;-71
2022/11/20 08:26:37;;;;;;;4.43;3.80;;;;;;;2.18;100.00;100768.09;6070491;23;20091;-71
2022/11/20 08:29:04;;;;;;;4.00;3.60;;;;;;;2.48;100.00;100816.81;6072546;23;20092;-71
2022/11/20 08:31:31;;;;;;;8.65;4.03;;;;;;;2.27;100.00;100763.66;6054184;23;20555;-72
2022/11/20 08:33:58;;;;;;;3.72;3.53;;;;;;;2.44;100.00;100786.66;6062839;23;20026;-72
2022/11/20 08:36:24;;;;;;;5.68;5.28;;;;;;;2.87;100.00;100828.22;6057247;23;20033;-72
2022/11/20 08:38:54;;;;;;;5.63;5.10;;;;;;;2.90;100.00;100851.47;6045992;23;20488;-72
2022/11/20 08:41:31;;;;;;;8.45;4.28;;;;;;;2.93;100.00;100841.06;6078760;23;20030;-72
2022/11/20 08:44:06;;;;;;;6.05;4.88;;;;;;;2.29;100.00;100738.59;6065284;23;20022;-72
2022/11/20 08:46:41;;;;;;;10.48;5.50;;;;;;;2.95;100.00;100847.09;6059529;23;20398;-71
2022/11/20 08:49:10;;;;;;;4.43;4.07;;;;;;;2.99;100.00;100838.38;6051942;23;20022;-72
2022/11/20 08:51:37;;;;;;;5.18;4.68;;;;;;;2.83;100.00;100823.09;6056295;23;20502;-73
2022/11/20 08:54:05;;;;;;;7.38;4.30;;;;;;;2.63;100.00;100798.44;6064287;23;20037;-72
2022/11/20 08:56:31;;;;;;;5.15;4.65;;;;;;;3.00;100.00;100845.25;6069712;23;20101;-71
2022/11/20 08:59:01;;;;;;;4.43;4.22;;;;;;;2.56;100.00;100769.16;6079251;23;20037;-73
2022/11/20 09:01:47;;;;;;;5.38;4.20;;;;;;;3.13;100.00;100847.63;6061926;23;20239;-75
2022/11/20 09:04:14;;;;;;;6.22;5.72;;;;;;;3.05;100.00;100855.56;6077791;23;20010;-74
2022/11/20 09:06:40;;;;;;;4.60;4.30;;;;;;;2.54;100.00;100780.44;6043641;23;20566;-74
2022/11/20 09:09:07;;;;;;;8.35;5.15;;;;;;;2.59;100.00;100753.56;6038845;23;20019;-74
2022/11/20 09:11:35;;;;;;;4.35;3.95;;;;;;;2.64;100.00;100761.25;6078796;23;20209;-74
2022/11/20 09:14:02;;;;;;;5.63;5.18;;;;;;;3.17;100.00;100834.56;6072478;23;20034;-74
2022/11/20 09:16:29;;;;;;;6.45;5.65;;;;;;;1.94;100.00;100647.69;6061626;23;20077;-69
2022/11/20 09:18:55;;;;;;;5.65;5.18;;;;;;;2.57;100.00;100744.13;6075567;23;20041;-74
2022/11/20 09:21:41;;;;;;;4.93;4.55;;;;;;;3.29;100.00;100862.00;6063616;23;20033;-72
2022/11/20 09:24:08;;;;;;;11.68;5.05;;;;;;;2.87;100.00;100771.19;6061886;23;20018;-72
2022/11/20 09:26:34;;;;;;;5.20;4.63;;;;;;;3.40;100.00;100839.28;6036010;23;20019;-72
2022/11/20 09:29:01;;;;;;;10.55;5.18;;;;;;;3.20;100.00;100818.09;6050718;23;20027;-72
2022/11/20 09:31:27;;;;;;;3.45;3.25;;;;;;;2.63;100.00;100720.69;6080303;23;20019;-75
2022/11/20 09:33:53;;;;;;;5.85;5.45;;;;;;;3.25;100.00;100834.41;6044081;23;20097;-74
2022/11/20 09:36:20;;;;;;;4.53;4.22;;;;;;;3.27;100.00;100842.16;6055738;23;20579;-72
2022/11/20 09:38:47;;;;;;;5.25;4.75;;;;;;;3.30;100.00;100827.38;6059456;23;20074;-71
2022/11/20 09:41:25;;;;;;;5.10;4.13;;;;;;;3.33;100.00;100845.50;6055412;23;20033;-72
2022/11/20 09:44:05;;;;;;;5.22;4.82;;;;;;;3.35;100.00;100845.47;6048926;23;20037;-72
2022/11/20 09:46:50;;;;;;;6.35;4.90;;;;;;;3.43;100.00;100845.28;6051511;23;20449;-72
2022/11/20 09:49:48;;;;;;;5.05;4.32;;;;;;;3.10;100.00;100783.69;6066598;23;20018;-73
2022/11/20 09:52:20;;;;;;;5.13;4.35;;;;;;;3.47;100.00;100833.97;6054241;23;20146;-72
2022/11/20 09:54:47;;;;;;;5.00;4.53;;;;;;;3.19;100.00;100767.97;6078610;23;20468;-72
2022/11/20 09:57:18;;;;;;;5.95;4.70;;;;;;;3.39;100.00;100784.88;6058689;23;20014;-72
2022/11/20 09:59:55;;;;;;;4.53;4.13;;;;;;;3.77;100.00;100859.28;6072701;23;20258;-72
2022/11/20 10:02:35;;;;;;;6.25;5.72;;;;;;;3.17;100.00;100766.28;6059296;23;20085;-73
2022/11/20 10:05:10;;;;;;;4.65;4.35;;;;;;;3.82;100.00;100864.38;6066356;23;20397;-72
2022/11/20 10:07:44;;;;;;;5.40;5.00;;;;;;;2.55;100.00;100658.66;6033834;23;20026;-73
2022/11/20 10:10:27;;;;;;;5.95;4.72;;;;;;;3.34;100.00;100794.47;6045959;23;20730;-72
2022/11/20 10:13:27;;;;;;;9.25;6.18;;;;;;;3.78;100.00;100857.53;6066307;23;20518;-73
2022/11/20 10:16:29;;;;;;;4.95;4.47;;;;;;;3.82;100.00;100851.41;6009589;23;20524;-73
2022/11/20 10:19:20;;;;;;;5.80;5.22;;;;;;;3.82;100.00;100845.34;6056507;23;20088;-73
2022/11/20 10:22:24;;;;;;;7.57;6.65;;;;;;;3.85;100.00;100838.38;6037178;23;20063;-73
2022/11/20 10:25:15;;;;;;;8.73;4.65;;;;;;;3.90;100.00;100826.13;6068076;23;20021;-73
2022/11/20 10:27:52;;;;;;;5.32;4.88;;;;;;;3.55;100.00;100747.31;6061069;23;20034;-72
2022/11/20 10:30:21;;;;;;;5.57;5.07;;;;;;;4.07;100.00;100830.06;6045841;23;20097;-74
2022/11/20 10:33:15;;;;;;;4.53;4.15;;;;;;;3.59;100.00;100720.41;6021672;23;20022;-73
2022/11/20 10:35:47;;;;;;;6.45;5.25;;;;;;;4.13;100.00;100814.34;6055349;23;20015;-74
2022/11/20 10:38:31;;;;;;;4.75;4.38;;;;;;;4.13;100.00;100789.25;6067760;23;20022;-74
2022/11/20 10:43:51;;;;;;;5.22;4.82;;;;;;;3.90;100.00;100691.09;6035405;23;20058;-73
2022/11/20 10:46:22;;;;;;;5.97;5.05;;;;;;;4.26;100.00;100729.19;6072892;23;20097;-74
2022/11/20 10:48:50;;;;;;;6.63;6.03;;;;;;;4.81;100.00;100797.91;6062808;23;20452;-74
2022/11/20 10:51:25;;;;;;;8.10;4.32;;;;;;;4.94;100.00;100788.88;6054405;23;20033;-74
2022/11/20 10:54:04;;;;;;;6.82;6.00;;;;;;;5.04;100.00;100792.09;6063657;23;20033;-73
2022/11/20 10:56:41;;;;;;;5.60;5.07;;;;;;;4.64;100.00;100702.19;6060153;23;20558;-74
2022/11/20 10:59:35;;;;;;;6.05;5.57;;;;;;;5.16;100.00;100777.88;6064439;23;20041;-74
2022/11/20 11:02:14;;;;;;;7.18;5.57;;;;;;;4.96;100.00;100745.47;6060284;23;20037;-74
2022/11/20 11:04:45;;;;;;;6.93;6.32;;;;;;;4.78;100.00;100733.84;6046591;23;20081;-74
2022/11/20 11:07:25;;;;;;;5.72;5.28;;;;;;;4.90;100.00;100768.22;6076192;23;20021;-74
2022/11/20 11:09:54;;;;;;;6.55;6.07;;;;;;;4.80;100.00;100760.66;6038004;23;20298;-74
2022/11/20 11:12:23;;;;;;;9.90;5.25;;;;;;;4.68;100.00;100755.78;6065778;23;20040;-74
2022/11/20 11:14:52;;;;;;;10.70;7.38;;;;;;;4.42;100.00;100717.50;6078693;23;20034;-74
2022/11/20 11:17:26;;;;;;;6.63;5.90;;;;;;;4.37;100.00;100712.44;6026601;23;20084;-74
2022/11/20 11:20:10;;;;;;;6.00;5.45;;;;;;;4.41;100.00;100713.22;6060854;23;20029;-73
2022/11/20 11:22:48;;;;;;;7.88;6.57;;;;;;;4.45;100.00;100708.75;6048478;23;20418;-74
2022/11/20 11:25:29;;;;;;;6.35;5.85;;;;;;;4.24;100.00;100690.25;6064284;23;20042;-74
2022/11/20 11:27:59;;;;;;;7.70;6.40;;;;;;;4.42;100.00;100706.25;6053463;23;20030;-74
2022/11/20 11:30:28;;;;;;;8.38;6.72;;;;;;;4.07;100.00;100651.75;6062795;23;20033;-74
2022/11/20 11:33:06;;;;;;;10.90;8.85;;;;;;;4.51;100.00;100711.19;6032238;23;20604;-74
2022/11/20 11:35:33;;;;;;;9.73;5.68;;;;;;;4.51;100.00;100706.00;6063447;23;20469;-74
2022/11/20 11:38:07;;;;;;;6.38;5.78;;;;;;;4.43;100.00;100669.84;6059438;23;20051;-74
2022/11/20 11:40:37;;;;;;;6.20;4.60;;;;;;;4.37;100.00;100639.69;6047606;23;20249;-74
2022/11/20 11:45:04;;;;;;;11.32;6.93;;;;;;;4.91;100.00;100704.91;6042826;23;20011;-74
2022/11/20 11:45:55;;;;;;;6.70;5.95;;;;;;;4.91;100.00;100679.75;6071858;23;20087;-74